THA112 VTSM-VTSP
Flight info
| Callsign | THA112 |
|---|---|
| Flight time | 0h 36m |
| Altitude | 24000 |
| Route | DORNA1A DORNA W32 SAPUD Y8 SAVSA SAVSA1C |
| Aircraft | A20N/M-SDE2E3FGHIRWXY/LB1 |
Departure
| Time | 2026-05-08 13:03 |
|---|---|
| Airport | Samui International Airport (VTSM) |
Arrival
| Time | 2026-05-08 13:39 |
|---|---|
| Airport | Phuket International Airport (VTSP) |
| Time | Latitude | Longitude | Altitude | Speed | Heading |
|---|---|---|---|---|---|
| 2026-05-08 12:45 | 9.55082 | 100.06344 | 52 ft | 0 kts | 84° |
| 2026-05-08 12:54 | 9.55082 | 100.06341 | 52 ft | 2 kts | 83° |
| 2026-05-08 12:54 | 9.55079 | 100.06322 | 51 ft | 2 kts | 69° |
| 2026-05-08 12:54 | 9.55075 | 100.06313 | 51 ft | 2 kts | 45° |
| 2026-05-08 12:55 | 9.55060 | 100.06306 | 48 ft | 2 kts | 358° |
| 2026-05-08 12:55 | 9.55053 | 100.06306 | 48 ft | 0 kts | 355° |
| 2026-05-08 12:57 | 9.55065 | 100.06305 | 52 ft | 5 kts | 355° |
| 2026-05-08 12:57 | 9.55134 | 100.06298 | 51 ft | 15 kts | 353° |
| 2026-05-08 12:58 | 9.55256 | 100.06287 | 52 ft | 16 kts | 356° |
| 2026-05-08 12:58 | 9.55283 | 100.06277 | 52 ft | 0 kts | 325° |
| 2026-05-08 13:00 | 9.55287 | 100.06273 | 52 ft | 4 kts | 316° |
| 2026-05-08 13:00 | 9.55295 | 100.06234 | 49 ft | 6 kts | 265° |
| 2026-05-08 13:00 | 9.55366 | 100.06189 | 50 ft | 19 kts | 353° |
| 2026-05-08 13:00 | 9.55554 | 100.06173 | 52 ft | 34 kts | 355° |
| 2026-05-08 13:01 | 9.55701 | 100.06174 | 51 ft | 8 kts | 303° |
| 2026-05-08 13:01 | 9.55661 | 100.06142 | 52 ft | 14 kts | 172° |
| 2026-05-08 13:01 | 9.55607 | 100.06165 | 48 ft | 0 kts | 171° |
| 2026-05-08 13:03 | 9.55454 | 100.06182 | 52 ft | 66 kts | 174° |
| 2026-05-08 13:03 | 9.54688 | 100.06259 | 54 ft | 150 kts | 174° |
| 2026-05-08 13:03 | 9.53628 | 100.06436 | 811 ft | 150 kts | 160° |
| 2026-05-08 13:03 | 9.52652 | 100.06858 | 1798 ft | 164 kts | 149° |
| 2026-05-08 13:04 | 9.51548 | 100.07378 | 2567 ft | 183 kts | 156° |
| 2026-05-08 13:04 | 9.50300 | 100.07842 | 3185 ft | 201 kts | 159° |
| 2026-05-08 13:04 | 9.48898 | 100.08330 | 3728 ft | 222 kts | 161° |
| 2026-05-08 13:04 | 9.47347 | 100.08444 | 4664 ft | 228 kts | 191° |
| 2026-05-08 13:05 | 9.45922 | 100.07716 | 5591 ft | 237 kts | 222° |
| 2026-05-08 13:05 | 9.45004 | 100.06309 | 6453 ft | 245 kts | 246° |
| 2026-05-08 13:05 | 9.44373 | 100.04624 | 7034 ft | 267 kts | 250° |
| 2026-05-08 13:05 | 9.43756 | 100.02786 | 7517 ft | 290 kts | 251° |
| 2026-05-08 13:06 | 9.43075 | 100.00791 | 8284 ft | 299 kts | 250° |
| 2026-05-08 13:06 | 9.42376 | 99.98825 | 9207 ft | 303 kts | 249° |
| 2026-05-08 13:06 | 9.41641 | 99.96804 | 10096 ft | 308 kts | 249° |
| 2026-05-08 13:06 | 9.40875 | 99.94718 | 10621 ft | 327 kts | 251° |
| 2026-05-08 13:07 | 9.40332 | 99.92390 | 10920 ft | 351 kts | 263° |
| 2026-05-08 13:07 | 9.40294 | 99.89860 | 11456 ft | 363 kts | 276° |
| 2026-05-08 13:07 | 9.40579 | 99.87336 | 12271 ft | 366 kts | 276° |
| 2026-05-08 13:07 | 9.40856 | 99.84756 | 13060 ft | 371 kts | 276° |
| 2026-05-08 13:08 | 9.41129 | 99.82137 | 13839 ft | 375 kts | 276° |
| 2026-05-08 13:08 | 9.41369 | 99.79487 | 14512 ft | 379 kts | 271° |
| 2026-05-08 13:08 | 9.41170 | 99.76826 | 15168 ft | 382 kts | 258° |
| 2026-05-08 13:08 | 9.40398 | 99.74243 | 15832 ft | 384 kts | 245° |
| 2026-05-08 13:09 | 9.39277 | 99.71773 | 16491 ft | 388 kts | 244° |
| 2026-05-08 13:09 | 9.38142 | 99.69279 | 17144 ft | 392 kts | 244° |
| 2026-05-08 13:09 | 9.36999 | 99.66753 | 17774 ft | 396 kts | 244° |
| 2026-05-08 13:09 | 9.35849 | 99.64204 | 18361 ft | 400 kts | 244° |
| 2026-05-08 13:10 | 9.34688 | 99.61625 | 18931 ft | 403 kts | 244° |
| 2026-05-08 13:10 | 9.33536 | 99.59069 | 19486 ft | 405 kts | 244° |
| 2026-05-08 13:10 | 9.32360 | 99.56460 | 20032 ft | 409 kts | 244° |
| 2026-05-08 13:10 | 9.31175 | 99.53831 | 20578 ft | 412 kts | 244° |
| 2026-05-08 13:11 | 9.29981 | 99.51183 | 21105 ft | 415 kts | 244° |
| 2026-05-08 13:11 | 9.28777 | 99.48515 | 21629 ft | 418 kts | 244° |
| 2026-05-08 13:11 | 9.27565 | 99.45829 | 22144 ft | 421 kts | 244° |
| 2026-05-08 13:11 | 9.26342 | 99.43119 | 22655 ft | 425 kts | 244° |
| 2026-05-08 13:12 | 9.25112 | 99.40394 | 23167 ft | 427 kts | 244° |
| 2026-05-08 13:12 | 9.23923 | 99.37759 | 23577 ft | 431 kts | 244° |
| 2026-05-08 13:12 | 9.22674 | 99.34994 | 23764 ft | 432 kts | 244° |
| 2026-05-08 13:12 | 9.21423 | 99.32223 | 23821 ft | 433 kts | 244° |
| 2026-05-08 13:13 | 9.20171 | 99.29450 | 23743 ft | 433 kts | 244° |
| 2026-05-08 13:13 | 9.18916 | 99.26673 | 23532 ft | 432 kts | 244° |
| 2026-05-08 13:13 | 9.17672 | 99.23919 | 23303 ft | 430 kts | 244° |
| 2026-05-08 13:13 | 9.16431 | 99.21173 | 23043 ft | 428 kts | 244° |
| 2026-05-08 13:14 | 9.15195 | 99.18439 | 22790 ft | 426 kts | 244° |
| 2026-05-08 13:14 | 9.13910 | 99.15785 | 22537 ft | 424 kts | 238° |
| 2026-05-08 13:14 | 9.12235 | 99.13340 | 22290 ft | 421 kts | 229° |
| 2026-05-08 13:14 | 9.10212 | 99.11233 | 22039 ft | 418 kts | 219° |
| 2026-05-08 13:15 | 9.07952 | 99.09379 | 21768 ft | 416 kts | 217° |
| 2026-05-08 13:15 | 9.05700 | 99.07544 | 21477 ft | 414 kts | 217° |
| 2026-05-08 13:15 | 9.03459 | 99.05709 | 21187 ft | 412 kts | 217° |
| 2026-05-08 13:15 | 9.01236 | 99.03886 | 20899 ft | 410 kts | 217° |
| 2026-05-08 13:16 | 8.99043 | 99.02089 | 20619 ft | 409 kts | 217° |
| 2026-05-08 13:16 | 8.96837 | 99.00281 | 20340 ft | 407 kts | 217° |
| 2026-05-08 13:16 | 8.94634 | 98.98478 | 20057 ft | 405 kts | 217° |
| 2026-05-08 13:16 | 8.92446 | 98.96686 | 19785 ft | 404 kts | 217° |
| 2026-05-08 13:17 | 8.90263 | 98.94900 | 19513 ft | 402 kts | 217° |
| 2026-05-08 13:17 | 8.88116 | 98.93143 | 19246 ft | 401 kts | 217° |
| 2026-05-08 13:17 | 8.85956 | 98.91375 | 18981 ft | 399 kts | 217° |
| 2026-05-08 13:17 | 8.83798 | 98.89610 | 18713 ft | 397 kts | 217° |
| 2026-05-08 13:18 | 8.81649 | 98.87852 | 18454 ft | 396 kts | 217° |
| 2026-05-08 13:18 | 8.79512 | 98.86105 | 18186 ft | 394 kts | 217° |
| 2026-05-08 13:18 | 8.77372 | 98.84361 | 17892 ft | 393 kts | 217° |
| 2026-05-08 13:18 | 8.75247 | 98.82633 | 17583 ft | 391 kts | 217° |
| 2026-05-08 13:19 | 8.73152 | 98.80929 | 17293 ft | 389 kts | 217° |
| 2026-05-08 13:19 | 8.71045 | 98.79217 | 17001 ft | 387 kts | 217° |
| 2026-05-08 13:19 | 8.68947 | 98.77510 | 16694 ft | 386 kts | 217° |
| 2026-05-08 13:19 | 8.66851 | 98.75805 | 16400 ft | 384 kts | 217° |
| 2026-05-08 13:20 | 8.64797 | 98.74135 | 16117 ft | 383 kts | 217° |
| 2026-05-08 13:20 | 8.62721 | 98.72446 | 15832 ft | 381 kts | 217° |
| 2026-05-08 13:20 | 8.60652 | 98.70764 | 15548 ft | 379 kts | 217° |
| 2026-05-08 13:20 | 8.58598 | 98.69093 | 15261 ft | 377 kts | 217° |
| 2026-05-08 13:21 | 8.56580 | 98.67453 | 14996 ft | 376 kts | 217° |
| 2026-05-08 13:21 | 8.54541 | 98.65796 | 14713 ft | 375 kts | 217° |
| 2026-05-08 13:21 | 8.52517 | 98.64144 | 14439 ft | 373 kts | 219° |
| 2026-05-08 13:21 | 8.50663 | 98.62295 | 14156 ft | 373 kts | 228° |
| 2026-05-08 13:22 | 8.49118 | 98.60182 | 13896 ft | 373 kts | 237° |
| 2026-05-08 13:22 | 8.47832 | 98.57940 | 13628 ft | 372 kts | 239° |
| 2026-05-08 13:22 | 8.46543 | 98.55682 | 13323 ft | 370 kts | 239° |
| 2026-05-08 13:22 | 8.45254 | 98.53438 | 13023 ft | 368 kts | 239° |
| 2026-05-08 13:23 | 8.43969 | 98.51206 | 12722 ft | 366 kts | 239° |
| 2026-05-08 13:23 | 8.42690 | 98.48987 | 12423 ft | 364 kts | 239° |
| 2026-05-08 13:23 | 8.41418 | 98.46778 | 12120 ft | 363 kts | 239° |
| 2026-05-08 13:23 | 8.40151 | 98.44579 | 11830 ft | 361 kts | 239° |
| 2026-05-08 13:24 | 8.38904 | 98.42414 | 11540 ft | 352 kts | 239° |
| 2026-05-08 13:24 | 8.37697 | 98.40319 | 11255 ft | 343 kts | 239° |
| 2026-05-08 13:24 | 8.36516 | 98.38267 | 10951 ft | 328 kts | 239° |
| 2026-05-08 13:24 | 8.35395 | 98.36320 | 10665 ft | 313 kts | 239° |
| 2026-05-08 13:25 | 8.34312 | 98.34439 | 10396 ft | 307 kts | 238° |
| 2026-05-08 13:25 | 8.33249 | 98.32597 | 10125 ft | 306 kts | 239° |
| 2026-05-08 13:25 | 8.32181 | 98.30747 | 9851 ft | 303 kts | 239° |
| 2026-05-08 13:25 | 8.31120 | 98.28906 | 9531 ft | 303 kts | 239° |
| 2026-05-08 13:26 | 8.30062 | 98.27071 | 9196 ft | 301 kts | 239° |
| 2026-05-08 13:26 | 8.29011 | 98.25249 | 8878 ft | 299 kts | 239° |
| 2026-05-08 13:26 | 8.27964 | 98.23433 | 8563 ft | 298 kts | 238° |
| 2026-05-08 13:26 | 8.26933 | 98.21645 | 8241 ft | 296 kts | 238° |
| 2026-05-08 13:27 | 8.25899 | 98.19853 | 7926 ft | 294 kts | 238° |
| 2026-05-08 13:27 | 8.24872 | 98.18073 | 7622 ft | 293 kts | 238° |
| 2026-05-08 13:27 | 8.23853 | 98.16308 | 7301 ft | 288 kts | 238° |
| 2026-05-08 13:27 | 8.22866 | 98.14596 | 6996 ft | 277 kts | 238° |
| 2026-05-08 13:28 | 8.21917 | 98.12950 | 6687 ft | 266 kts | 238° |
| 2026-05-08 13:28 | 8.21001 | 98.11360 | 6392 ft | 256 kts | 238° |
| 2026-05-08 13:28 | 8.20151 | 98.09827 | 6074 ft | 246 kts | 244° |
| 2026-05-08 13:28 | 8.19620 | 98.08238 | 5757 ft | 239 kts | 257° |
| 2026-05-08 13:29 | 8.19374 | 98.06604 | 5444 ft | 232 kts | 261° |
| 2026-05-08 13:29 | 8.19142 | 98.05019 | 5134 ft | 225 kts | 260° |
| 2026-05-08 13:29 | 8.18906 | 98.03473 | 4820 ft | 220 kts | 258° |
| 2026-05-08 13:29 | 8.18304 | 98.02114 | 4566 ft | 206 kts | 227° |
| 2026-05-08 13:30 | 8.17193 | 98.01313 | 4285 ft | 192 kts | 198° |
| 2026-05-08 13:30 | 8.15907 | 98.01170 | 3977 ft | 183 kts | 172° |
| 2026-05-08 13:30 | 8.14654 | 98.01306 | 3658 ft | 180 kts | 172° |
| 2026-05-08 13:30 | 8.13417 | 98.01431 | 3349 ft | 178 kts | 173° |
| 2026-05-08 13:31 | 8.12198 | 98.01547 | 3098 ft | 172 kts | 173° |
| 2026-05-08 13:31 | 8.11026 | 98.01657 | 3040 ft | 171 kts | 173° |
| 2026-05-08 13:31 | 8.09854 | 98.01786 | 3026 ft | 170 kts | 165° |
| 2026-05-08 13:31 | 8.08905 | 98.02420 | 3033 ft | 167 kts | 123° |
| 2026-05-08 13:32 | 8.08649 | 98.03524 | 3034 ft | 159 kts | 84° |
| 2026-05-08 13:32 | 8.08773 | 98.04601 | 3032 ft | 150 kts | 84° |
| 2026-05-08 13:32 | 8.08882 | 98.05645 | 3018 ft | 147 kts | 84° |
| 2026-05-08 13:32 | 8.08982 | 98.06655 | 3020 ft | 145 kts | 84° |
| 2026-05-08 13:33 | 8.09079 | 98.07670 | 3025 ft | 144 kts | 84° |
| 2026-05-08 13:33 | 8.09175 | 98.08665 | 3019 ft | 140 kts | 84° |
| 2026-05-08 13:33 | 8.09269 | 98.09648 | 3015 ft | 140 kts | 84° |
| 2026-05-08 13:33 | 8.09363 | 98.10625 | 3017 ft | 141 kts | 85° |
| 2026-05-08 13:34 | 8.09452 | 98.11594 | 3016 ft | 140 kts | 85° |
| 2026-05-08 13:34 | 8.09542 | 98.12581 | 3013 ft | 141 kts | 85° |
| 2026-05-08 13:34 | 8.09632 | 98.13565 | 3014 ft | 141 kts | 85° |
| 2026-05-08 13:34 | 8.09723 | 98.14551 | 3013 ft | 141 kts | 85° |
| 2026-05-08 13:35 | 8.09813 | 98.15537 | 3005 ft | 141 kts | 85° |
| 2026-05-08 13:35 | 8.09904 | 98.16521 | 2876 ft | 142 kts | 85° |
| 2026-05-08 13:35 | 8.09997 | 98.17522 | 2613 ft | 143 kts | 85° |
| 2026-05-08 13:35 | 8.10090 | 98.18524 | 2317 ft | 143 kts | 84° |
| 2026-05-08 13:36 | 8.10182 | 98.19529 | 2026 ft | 144 kts | 84° |
| 2026-05-08 13:36 | 8.10275 | 98.20537 | 1742 ft | 144 kts | 84° |
| 2026-05-08 13:36 | 8.10367 | 98.21546 | 1445 ft | 145 kts | 84° |
| 2026-05-08 13:36 | 8.10460 | 98.22548 | 1158 ft | 141 kts | 84° |
| 2026-05-08 13:37 | 8.10551 | 98.23520 | 947 ft | 142 kts | 84° |
| 2026-05-08 13:37 | 8.10660 | 98.24497 | 745 ft | 137 kts | 83° |
| 2026-05-08 13:37 | 8.10721 | 98.25124 | 650 ft | 136 kts | 85° |
| 2026-05-08 13:37 | 8.10795 | 98.26099 | 535 ft | 136 kts | 85° |
| 2026-05-08 13:38 | 8.10880 | 98.27021 | 391 ft | 128 kts | 85° |
| 2026-05-08 13:38 | 8.10969 | 98.27904 | 363 ft | 130 kts | 82° |
| 2026-05-08 13:38 | 8.11051 | 98.28825 | 270 ft | 131 kts | 84° |
| 2026-05-08 13:38 | 8.11139 | 98.29735 | 171 ft | 132 kts | 83° |
| 2026-05-08 13:39 | 8.11226 | 98.30650 | 35 ft | 128 kts | 84° |
| 2026-05-08 13:39 | 8.11299 | 98.31428 | 35 ft | 92 kts | 85° |
| 2026-05-08 13:39 | 8.11348 | 98.31936 | 56 ft | 64 kts | 84° |
| 2026-05-08 13:39 | 8.11366 | 98.32297 | 72 ft | 35 kts | 101° |
| 2026-05-08 13:40 | 8.11280 | 98.32430 | 71 ft | 0 kts | 189° |
| 2026-05-08 13:40 | 8.11251 | 98.32362 | 68 ft | 21 kts | 262° |
| 2026-05-08 13:40 | 8.11232 | 98.32175 | 63 ft | 31 kts | 264° |
| 2026-05-08 13:40 | 8.11216 | 98.32023 | 57 ft | 35 kts | 263° |
| 2026-05-08 13:41 | 8.11184 | 98.31676 | 45 ft | 40 kts | 264° |
| 2026-05-08 13:41 | 8.11158 | 98.31381 | 34 ft | 43 kts | 265° |
| 2026-05-08 13:41 | 8.11137 | 98.31176 | 30 ft | 45 kts | 263° |
| 2026-05-08 13:41 | 8.11077 | 98.30832 | 28 ft | 32 kts | 263° |
| 2026-05-08 13:42 | 8.11056 | 98.30600 | 27 ft | 34 kts | 264° |
| 2026-05-08 13:42 | 8.11018 | 98.30483 | 27 ft | 16 kts | 210° |
| 2026-05-08 13:42 | 8.10924 | 98.30463 | 27 ft | 15 kts | 194° |
| 2026-05-08 13:42 | 8.10811 | 98.30431 | 27 ft | 19 kts | 195° |
| 2026-05-08 13:43 | 8.10688 | 98.30399 | 26 ft | 13 kts | 188° |
| 2026-05-08 13:43 | 8.10665 | 98.30437 | 27 ft | 8 kts | 104° |
| 2026-05-08 13:43 | 8.10652 | 98.30482 | 27 ft | 0 kts | 103° |
| 2026-05-08 13:43 | 8.10651 | 98.30485 | 27 ft | 0 kts | 105° |